sensor_id;sensor_type;location;lat;lon;timestamp;temperature;humidity
65707;SHT31;52423;43.512;5.220;2022-11-25T00:01:02;11.29;76.19
65707;SHT31;52423;43.512;5.220;2022-11-25T00:03:28;11.31;75.31
65707;SHT31;52423;43.512;5.220;2022-11-25T00:05:53;11.33;75.43
65707;SHT31;52423;43.512;5.220;2022-11-25T00:08:19;11.38;75.97
65707;SHT31;52423;43.512;5.220;2022-11-25T00:10:44;11.42;75.33
65707;SHT31;52423;43.512;5.220;2022-11-25T00:13:09;11.46;74.97
65707;SHT31;52423;43.512;5.220;2022-11-25T00:15:35;11.49;74.80
65707;SHT31;52423;43.512;5.220;2022-11-25T00:18:00;11.49;74.95
65707;SHT31;52423;43.512;5.220;2022-11-25T00:20:25;11.49;75.10
65707;SHT31;52423;43.512;5.220;2022-11-25T00:22:51;11.52;76.03
65707;SHT31;52423;43.512;5.220;2022-11-25T00:25:16;11.52;75.40
65707;SHT31;52423;43.512;5.220;2022-11-25T00:27:41;11.49;75.67
65707;SHT31;52423;43.512;5.220;2022-11-25T00:30:07;11.49;76.27
65707;SHT31;52423;43.512;5.220;2022-11-25T00:32:33;11.53;75.47
65707;SHT31;52423;43.512;5.220;2022-11-25T00:34:58;11.47;75.70
65707;SHT31;52423;43.512;5.220;2022-11-25T00:37:23;11.46;75.34
65707;SHT31;52423;43.512;5.220;2022-11-25T00:39:49;11.44;76.09
65707;SHT31;52423;43.512;5.220;2022-11-25T00:42:14;11.44;76.03
65707;SHT31;52423;43.512;5.220;2022-11-25T00:44:58;11.46;75.83
65707;SHT31;52423;43.512;5.220;2022-11-25T00:47:23;11.49;75.86
65707;SHT31;52423;43.512;5.220;2022-11-25T00:49:52;11.51;75.64
65707;SHT31;52423;43.512;5.220;2022-11-25T00:52:23;11.62;75.14
65707;SHT31;52423;43.512;5.220;2022-11-25T00:54:50;11.63;75.30
65707;SHT31;52423;43.512;5.220;2022-11-25T00:57:20;11.62;76.00
65707;SHT31;52423;43.512;5.220;2022-11-25T00:59:46;11.62;76.52
65707;SHT31;52423;43.512;5.220;2022-11-25T01:02:13;11.60;75.90
65707;SHT31;52423;43.512;5.220;2022-11-25T01:04:39;11.65;75.57
65707;SHT31;52423;43.512;5.220;2022-11-25T01:07:05;11.73;75.55
65707;SHT31;52423;43.512;5.220;2022-11-25T01:09:31;11.74;75.96
65707;SHT31;52423;43.512;5.220;2022-11-25T01:11:56;11.79;75.50
65707;SHT31;52423;43.512;5.220;2022-11-25T01:14:22;11.80;75.91
65707;SHT31;52423;43.512;5.220;2022-11-25T01:16:48;11.83;75.90
65707;SHT31;52423;43.512;5.220;2022-11-25T01:19:14;11.87;76.28
65707;SHT31;52423;43.512;5.220;2022-11-25T01:21:40;11.86;75.93
65707;SHT31;52423;43.512;5.220;2022-11-25T01:24:06;11.89;76.74
65707;SHT31;52423;43.512;5.220;2022-11-25T01:26:32;11.84;76.40
65707;SHT31;52423;43.512;5.220;2022-11-25T01:29:01;11.86;76.90
65707;SHT31;52423;43.512;5.220;2022-11-25T01:31:32;11.84;77.45
65707;SHT31;52423;43.512;5.220;2022-11-25T01:34:23;11.84;77.96
65707;SHT31;52423;43.512;5.220;2022-11-25T01:36:49;11.83;77.78
65707;SHT31;52423;43.512;5.220;2022-11-25T01:39:22;11.84;77.59
65707;SHT31;52423;43.512;5.220;2022-11-25T01:41:48;11.83;77.92
65707;SHT31;52423;43.512;5.220;2022-11-25T01:44:21;11.82;78.55
65707;SHT31;52423;43.512;5.220;2022-11-25T01:49:27;11.82;78.54
65707;SHT31;52423;43.512;5.220;2022-11-25T01:54:41;11.76;78.61
65707;SHT31;52423;43.512;5.220;2022-11-25T01:57:14;11.72;78.98
65707;SHT31;52423;43.512;5.220;2022-11-25T01:59:46;11.73;78.01
65707;SHT31;52423;43.512;5.220;2022-11-25T02:02:14;11.72;78.03
65707;SHT31;52423;43.512;5.220;2022-11-25T02:04:40;11.72;77.91
65707;SHT31;52423;43.512;5.220;2022-11-25T02:07:14;11.73;78.34
65707;SHT31;52423;43.512;5.220;2022-11-25T02:09:42;11.72;77.27
65707;SHT31;52423;43.512;5.220;2022-11-25T02:12:08;11.67;76.97
65707;SHT31;52423;43.512;5.220;2022-11-25T02:14:34;11.69;75.98
65707;SHT31;52423;43.512;5.220;2022-11-25T02:17:00;11.80;74.75
65707;SHT31;52423;43.512;5.220;2022-11-25T02:25:12;11.70;74.53
65707;SHT31;52423;43.512;5.220;2022-11-25T02:27:37;11.67;74.76
65707;SHT31;52423;43.512;5.220;2022-11-25T02:30:03;11.72;73.97
65707;SHT31;52423;43.512;5.220;2022-11-25T02:32:28;11.77;74.58
65707;SHT31;52423;43.512;5.220;2022-11-25T02:34:54;11.76;74.63
65707;SHT31;52423;43.512;5.220;2022-11-25T02:37:22;11.73;74.44
65707;SHT31;52423;43.512;5.220;2022-11-25T02:39:48;11.70;74.66
65707;SHT31;52423;43.512;5.220;2022-11-25T02:42:17;11.63;75.26
65707;SHT31;52423;43.512;5.220;2022-11-25T02:44:44;11.56;75.44
65707;SHT31;52423;43.512;5.220;2022-11-25T02:47:09;11.56;75.15
65707;SHT31;52423;43.512;5.220;2022-11-25T02:49:35;11.53;75.30
65707;SHT31;52423;43.512;5.220;2022-11-25T02:52:00;11.55;75.96
65707;SHT31;52423;43.512;5.220;2022-11-25T02:54:25;11.58;74.98
65707;SHT31;52423;43.512;5.220;2022-11-25T02:56:51;11.59;75.28
65707;SHT31;52423;43.512;5.220;2022-11-25T02:59:16;11.62;75.40
65707;SHT31;52423;43.512;5.220;2022-11-25T03:01:41;11.59;75.41
65707;SHT31;52423;43.512;5.220;2022-11-25T03:04:07;11.60;74.99
65707;SHT31;52423;43.512;5.220;2022-11-25T03:06:33;11.63;75.16
65707;SHT31;52423;43.512;5.220;2022-11-25T03:08:58;11.65;74.68
65707;SHT31;52423;43.512;5.220;2022-11-25T03:11:24;11.65;74.68
65707;SHT31;52423;43.512;5.220;2022-11-25T03:14:09;11.63;74.90
65707;SHT31;52423;43.512;5.220;2022-11-25T03:16:34;11.67;74.64
65707;SHT31;52423;43.512;5.220;2022-11-25T03:19:00;11.62;74.62
65707;SHT31;52423;43.512;5.220;2022-11-25T03:21:25;11.59;74.67
65707;SHT31;52423;43.512;5.220;2022-11-25T03:23:51;11.56;74.95
65707;SHT31;52423;43.512;5.220;2022-11-25T03:26:16;11.55;74.68
65707;SHT31;52423;43.512;5.220;2022-11-25T03:28:41;11.51;74.58
65707;SHT31;52423;43.512;5.220;2022-11-25T03:31:10;11.46;75.25
65707;SHT31;52423;43.512;5.220;2022-11-25T03:33:35;11.43;75.82
65707;SHT31;52423;43.512;5.220;2022-11-25T03:36:01;11.39;75.14
65707;SHT31;52423;43.512;5.220;2022-11-25T03:38:26;11.36;75.23
65707;SHT31;52423;43.512;5.220;2022-11-25T03:40:51;11.31;75.82
65707;SHT31;52423;43.512;5.220;2022-11-25T03:43:17;11.29;76.65
65707;SHT31;52423;43.512;5.220;2022-11-25T03:45:42;11.28;76.31
65707;SHT31;52423;43.512;5.220;2022-11-25T03:48:07;11.28;76.80
65707;SHT31;52423;43.512;5.220;2022-11-25T03:50:33;11.29;76.80
65707;SHT31;52423;43.512;5.220;2022-11-25T03:52:58;11.28;77.08
65707;SHT31;52423;43.512;5.220;2022-11-25T03:55:23;11.26;76.85
65707;SHT31;52423;43.512;5.220;2022-11-25T03:57:49;11.25;77.21
65707;SHT31;52423;43.512;5.220;2022-11-25T04:00:14;11.23;77.23
65707;SHT31;52423;43.512;5.220;2022-11-25T04:02:40;11.22;76.81
65707;SHT31;52423;43.512;5.220;2022-11-25T04:05:05;11.22;77.02
65707;SHT31;52423;43.512;5.220;2022-11-25T04:07:31;11.22;77.13
65707;SHT31;52423;43.512;5.220;2022-11-25T04:09:56;11.19;78.12
65707;SHT31;52423;43.512;5.220;2022-11-25T04:12:22;11.15;78.23
65707;SHT31;52423;43.512;5.220;2022-11-25T04:15:06;11.11;78.56
65707;SHT31;52423;43.512;5.220;2022-11-25T04:17:31;11.05;78.36
65707;SHT31;52423;43.512;5.220;2022-11-25T04:19:57;11.10;78.04
65707;SHT31;52423;43.512;5.220;2022-11-25T04:22:22;11.10;78.26
65707;SHT31;52423;43.512;5.220;2022-11-25T04:24:48;11.10;78.32
65707;SHT31;52423;43.512;5.220;2022-11-25T04:27:13;11.10;78.28
65707;SHT31;52423;43.512;5.220;2022-11-25T04:29:38;11.12;78.16
65707;SHT31;52423;43.512;5.220;2022-11-25T04:32:04;10.98;79.33
65707;SHT31;52423;43.512;5.220;2022-11-25T04:34:29;11.08;78.18
65707;SHT31;52423;43.512;5.220;2022-11-25T04:36:54;11.08;77.87
65707;SHT31;52423;43.512;5.220;2022-11-25T04:39:20;11.07;77.87
65707;SHT31;52423;43.512;5.220;2022-11-25T04:41:45;11.05;78.79
65707;SHT31;52423;43.512;5.220;2022-11-25T04:44:11;11.04;79.11
65707;SHT31;52423;43.512;5.220;2022-11-25T04:46:39;11.00;78.80
65707;SHT31;52423;43.512;5.220;2022-11-25T04:49:05;10.94;78.88
65707;SHT31;52423;43.512;5.220;2022-11-25T04:51:30;11.01;78.27
65707;SHT31;52423;43.512;5.220;2022-11-25T04:53:56;10.97;78.95
65707;SHT31;52423;43.512;5.220;2022-11-25T04:56:21;10.88;79.14
65707;SHT31;52423;43.512;5.220;2022-11-25T04:58:47;10.91;79.30
65707;SHT31;52423;43.512;5.220;2022-11-25T05:01:31;10.90;78.84
65707;SHT31;52423;43.512;5.220;2022-11-25T05:03:56;10.90;78.92
65707;SHT31;52423;43.512;5.220;2022-11-25T05:06:22;10.88;78.81
65707;SHT31;52423;43.512;5.220;2022-11-25T05:08:48;10.87;78.76
65707;SHT31;52423;43.512;5.220;2022-11-25T05:11:14;10.84;79.20
65707;SHT31;52423;43.512;5.220;2022-11-25T05:13:39;10.81;79.47
65707;SHT31;52423;43.512;5.220;2022-11-25T05:16:05;10.87;79.53
65707;SHT31;52423;43.512;5.220;2022-11-25T05:18:31;10.81;80.13
65707;SHT31;52423;43.512;5.220;2022-11-25T05:21:01;10.73;80.16
65707;SHT31;52423;43.512;5.220;2022-11-25T05:23:26;10.65;80.40
65707;SHT31;52423;43.512;5.220;2022-11-25T05:25:57;10.56;80.69
65707;SHT31;52423;43.512;5.220;2022-11-25T05:28:22;10.54;80.45
65707;SHT31;52423;43.512;5.220;2022-11-25T05:30:47;10.51;80.50
65707;SHT31;52423;43.512;5.220;2022-11-25T05:33:12;10.51;80.88
65707;SHT31;52423;43.512;5.220;2022-11-25T05:35:38;10.50;80.29
65707;SHT31;52423;43.512;5.220;2022-11-25T05:38:03;10.46;80.91
65707;SHT31;52423;43.512;5.220;2022-11-25T05:40:30;10.44;80.96
65707;SHT31;52423;43.512;5.220;2022-11-25T05:42:59;10.39;80.80
65707;SHT31;52423;43.512;5.220;2022-11-25T05:45:24;10.32;80.65
65707;SHT31;52423;43.512;5.220;2022-11-25T05:47:49;10.29;80.52
65707;SHT31;52423;43.512;5.220;2022-11-25T05:50:15;10.13;81.01
65707;SHT31;52423;43.512;5.220;2022-11-25T05:52:40;10.10;80.91
65707;SHT31;52423;43.512;5.220;2022-11-25T05:55:06;10.08;81.18
65707;SHT31;52423;43.512;5.220;2022-11-25T05:57:32;10.08;80.68
65707;SHT31;52423;43.512;5.220;2022-11-25T05:59:57;10.09;80.68
65707;SHT31;52423;43.512;5.220;2022-11-25T06:02:23;10.05;80.46
65707;SHT31;52423;43.512;5.220;2022-11-25T06:04:48;10.03;80.21
65707;SHT31;52423;43.512;5.220;2022-11-25T06:07:14;10.06;79.86
65707;SHT31;52423;43.512;5.220;2022-11-25T06:09:39;10.09;80.34
65707;SHT31;52423;43.512;5.220;2022-11-25T06:12:05;10.06;79.82
65707;SHT31;52423;43.512;5.220;2022-11-25T06:14:30;10.16;79.36
65707;SHT31;52423;43.512;5.220;2022-11-25T06:16:56;10.10;80.47
65707;SHT31;52423;43.512;5.220;2022-11-25T06:19:21;9.99;80.55
65707;SHT31;52423;43.512;5.220;2022-11-25T06:21:47;10.02;81.11
65707;SHT31;52423;43.512;5.220;2022-11-25T06:24:12;10.01;80.30
65707;SHT31;52423;43.512;5.220;2022-11-25T06:26:38;9.99;79.87
65707;SHT31;52423;43.512;5.220;2022-11-25T06:29:03;10.02;79.81
65707;SHT31;52423;43.512;5.220;2022-11-25T06:31:28;10.02;79.11
65707;SHT31;52423;43.512;5.220;2022-11-25T06:33:54;10.03;79.15
65707;SHT31;52423;43.512;5.220;2022-11-25T06:36:21;10.03;79.48
65707;SHT31;52423;43.512;5.220;2022-11-25T06:38:49;10.05;79.08
65707;SHT31;52423;43.512;5.220;2022-11-25T06:41:16;10.10;79.58
65707;SHT31;52423;43.512;5.220;2022-11-25T06:43:41;10.06;79.44
65707;SHT31;52423;43.512;5.220;2022-11-25T06:46:11;10.01;79.85
65707;SHT31;52423;43.512;5.220;2022-11-25T06:48:38;9.98;79.27
65707;SHT31;52423;43.512;5.220;2022-11-25T06:51:05;9.95;78.92
65707;SHT31;52423;43.512;5.220;2022-11-25T06:53:32;9.96;79.72
65707;SHT31;52423;43.512;5.220;2022-11-25T06:56:07;9.89;78.83
65707;SHT31;52423;43.512;5.220;2022-11-25T06:58:34;9.89;79.41
65707;SHT31;52423;43.512;5.220;2022-11-25T07:01:27;9.92;79.33
65707;SHT31;52423;43.512;5.220;2022-11-25T07:03:58;9.92;79.53
65707;SHT31;52423;43.512;5.220;2022-11-25T07:06:24;9.95;79.81
65707;SHT31;52423;43.512;5.220;2022-11-25T07:08:50;9.93;79.26
65707;SHT31;52423;43.512;5.220;2022-11-25T07:11:23;10.01;78.85
65707;SHT31;52423;43.512;5.220;2022-11-25T07:13:52;9.96;78.65
65707;SHT31;52423;43.512;5.220;2022-11-25T07:16:18;9.93;78.66
65707;SHT31;52423;43.512;5.220;2022-11-25T07:18:43;9.91;79.57
65707;SHT31;52423;43.512;5.220;2022-11-25T07:21:12;9.82;78.22
65707;SHT31;52423;43.512;5.220;2022-11-25T07:23:39;9.62;80.00
65707;SHT31;52423;43.512;5.220;2022-11-25T07:26:12;9.59;80.67
65707;SHT31;52423;43.512;5.220;2022-11-25T07:28:39;9.74;81.10
65707;SHT31;52423;43.512;5.220;2022-11-25T07:31:06;9.68;80.56
65707;SHT31;52423;43.512;5.220;2022-11-25T07:33:32;9.74;80.46
65707;SHT31;52423;43.512;5.220;2022-11-25T07:36:06;9.77;80.79
65707;SHT31;52423;43.512;5.220;2022-11-25T07:38:32;9.93;79.80
65707;SHT31;52423;43.512;5.220;2022-11-25T07:41:11;9.99;79.23
65707;SHT31;52423;43.512;5.220;2022-11-25T07:43:37;10.01;80.00
65707;SHT31;52423;43.512;5.220;2022-11-25T07:46:12;10.02;79.70
65707;SHT31;52423;43.512;5.220;2022-11-25T07:48:38;10.08;80.47
65707;SHT31;52423;43.512;5.220;2022-11-25T07:51:04;10.22;79.39
65707;SHT31;52423;43.512;5.220;2022-11-25T07:53:29;10.32;78.95
65707;SHT31;52423;43.512;5.220;2022-11-25T07:55:55;10.47;77.72
65707;SHT31;52423;43.512;5.220;2022-11-25T07:58:20;10.53;79.13
65707;SHT31;52423;43.512;5.220;2022-11-25T08:00:45;10.68;78.47
65707;SHT31;52423;43.512;5.220;2022-11-25T08:03:11;10.73;77.49
65707;SHT31;52423;43.512;5.220;2022-11-25T08:05:36;10.77;76.93
65707;SHT31;52423;43.512;5.220;2022-11-25T08:08:01;10.90;76.42
65707;SHT31;52423;43.512;5.220;2022-11-25T08:10:27;11.11;74.39
65707;SHT31;52423;43.512;5.220;2022-11-25T08:12:52;11.22;73.89
65707;SHT31;52423;43.512;5.220;2022-11-25T08:15:17;11.25;73.58
65707;SHT31;52423;43.512;5.220;2022-11-25T08:17:43;11.33;73.59
65707;SHT31;52423;43.512;5.220;2022-11-25T08:20:09;11.25;74.26
65707;SHT31;52423;43.512;5.220;2022-11-25T08:22:34;11.21;75.65
65707;SHT31;52423;43.512;5.220;2022-11-25T08:25:00;11.38;75.48
65707;SHT31;52423;43.512;5.220;2022-11-25T08:27:25;11.53;75.14
65707;SHT31;52423;43.512;5.220;2022-11-25T08:29:50;11.58;75.19
65707;SHT31;52423;43.512;5.220;2022-11-25T08:32:16;11.49;75.00
65707;SHT31;52423;43.512;5.220;2022-11-25T08:34:41;11.47;75.24
65707;SHT31;52423;43.512;5.220;2022-11-25T08:37:07;11.44;75.76
65707;SHT31;52423;43.512;5.220;2022-11-25T08:39:33;11.32;76.75
65707;SHT31;52423;43.512;5.220;2022-11-25T08:42:01;11.32;76.73
65707;SHT31;52423;43.512;5.220;2022-11-25T08:44:29;11.49;76.59
65707;SHT31;52423;43.512;5.220;2022-11-25T08:46:54;11.53;76.69
65707;SHT31;52423;43.512;5.220;2022-11-25T08:49:20;11.59;77.30
65707;SHT31;52423;43.512;5.220;2022-11-25T08:51:46;11.58;77.23
65707;SHT31;52423;43.512;5.220;2022-11-25T08:54:11;11.60;77.50
65707;SHT31;52423;43.512;5.220;2022-11-25T08:56:37;11.56;78.01
65707;SHT31;52423;43.512;5.220;2022-11-25T08:59:03;11.59;77.13
65707;SHT31;52423;43.512;5.220;2022-11-25T09:01:28;11.55;77.71
65707;SHT31;52423;43.512;5.220;2022-11-25T09:03:55;11.62;76.75
65707;SHT31;52423;43.512;5.220;2022-11-25T09:06:22;11.67;76.09
65707;SHT31;52423;43.512;5.220;2022-11-25T09:08:48;11.83;76.35
65707;SHT31;52423;43.512;5.220;2022-11-25T09:11:14;11.91;76.41
65707;SHT31;52423;43.512;5.220;2022-11-25T09:13:39;12.00;77.10
65707;SHT31;52423;43.512;5.220;2022-11-25T09:16:05;12.24;75.86
65707;SHT31;52423;43.512;5.220;2022-11-25T09:18:31;12.46;75.23
65707;SHT31;52423;43.512;5.220;2022-11-25T09:20:57;12.71;75.09
65707;SHT31;52423;43.512;5.220;2022-11-25T09:23:24;12.97;73.82
65707;SHT31;52423;43.512;5.220;2022-11-25T09:25:56;13.13;72.69
65707;SHT31;52423;43.512;5.220;2022-11-25T09:28:23;13.17;72.73
65707;SHT31;52423;43.512;5.220;2022-11-25T09:30:48;13.19;73.14
65707;SHT31;52423;43.512;5.220;2022-11-25T09:33:17;13.20;72.81
65707;SHT31;52423;43.512;5.220;2022-11-25T09:35:43;13.39;72.57
65707;SHT31;52423;43.512;5.220;2022-11-25T09:38:08;13.55;72.67
65707;SHT31;52423;43.512;5.220;2022-11-25T09:40:53;13.82;70.50
65707;SHT31;52423;43.512;5.220;2022-11-25T09:43:34;13.64;71.00
65707;SHT31;52423;43.512;5.220;2022-11-25T09:46:46;13.58;72.01
65707;SHT31;52423;43.512;5.220;2022-11-25T09:52:19;13.33;73.43
65707;SHT31;52423;43.512;5.220;2022-11-25T09:55:05;13.26;73.64
65707;SHT31;52423;43.512;5.220;2022-11-25T10:00:38;13.09;73.97
65707;SHT31;52423;43.512;5.220;2022-11-25T10:05:35;13.14;75.20
65707;SHT31;52423;43.512;5.220;2022-11-25T10:08:11;13.40;68.99
65707;SHT31;52423;43.512;5.220;2022-11-25T10:10:46;13.34;71.03
65707;SHT31;52423;43.512;5.220;2022-11-25T10:15:52;13.88;64.30
65707;SHT31;52423;43.512;5.220;2022-11-25T10:18:39;13.85;67.36
65707;SHT31;52423;43.512;5.220;2022-11-25T10:21:09;14.04;65.89
65707;SHT31;52423;43.512;5.220;2022-11-25T10:23:37;13.88;68.14
65707;SHT31;52423;43.512;5.220;2022-11-25T10:26:15;14.04;66.40
65707;SHT31;52423;43.512;5.220;2022-11-25T10:31:40;14.22;66.07
65707;SHT31;52423;43.512;5.220;2022-11-25T10:34:29;14.44;64.16
65707;SHT31;52423;43.512;5.220;2022-11-25T10:36:57;14.43;64.39
65707;SHT31;52423;43.512;5.220;2022-11-25T10:39:28;14.43;65.92
65707;SHT31;52423;43.512;5.220;2022-11-25T10:49:55;14.85;62.05
65707;SHT31;52423;43.512;5.220;2022-11-25T10:52:29;14.93;62.88
65707;SHT31;52423;43.512;5.220;2022-11-25T10:55:15;14.95;62.99
65707;SHT31;52423;43.512;5.220;2022-11-25T10:57:41;15.18;60.11
65707;SHT31;52423;43.512;5.220;2022-11-25T11:00:41;15.21;61.82
65707;SHT31;52423;43.512;5.220;2022-11-25T11:03:22;15.18;60.84
65707;SHT31;52423;43.512;5.220;2022-11-25T11:05:50;15.14;63.81
65707;SHT31;52423;43.512;5.220;2022-11-25T11:08:22;15.04;62.95
65707;SHT31;52423;43.512;5.220;2022-11-25T11:11:17;14.91;62.15
65707;SHT31;52423;43.512;5.220;2022-11-25T11:13:44;14.84;62.88
65707;SHT31;52423;43.512;5.220;2022-11-25T11:16:32;14.98;61.34
65707;SHT31;52423;43.512;5.220;2022-11-25T11:19:00;14.98;61.65
65707;SHT31;52423;43.512;5.220;2022-11-25T11:23:54;15.15;61.84
65707;SHT31;52423;43.512;5.220;2022-11-25T11:26:30;15.42;58.31
65707;SHT31;52423;43.512;5.220;2022-11-25T11:29:14;15.41;58.83
65707;SHT31;52423;43.512;5.220;2022-11-25T11:31:47;15.48;57.72
65707;SHT31;52423;43.512;5.220;2022-11-25T11:50:52;15.49;59.54
65707;SHT31;52423;43.512;5.220;2022-11-25T11:56:37;15.65;57.70
65707;SHT31;52423;43.512;5.220;2022-11-25T12:04:50;15.69;59.21
65707;SHT31;52423;43.512;5.220;2022-11-25T12:07:29;15.59;60.33
65707;SHT31;52423;43.512;5.220;2022-11-25T12:10:02;15.62;60.38
65707;SHT31;52423;43.512;5.220;2022-11-25T12:12:38;15.66;59.66
65707;SHT31;52423;43.512;5.220;2022-11-25T12:18:19;15.83;59.31
65707;SHT31;52423;43.512;5.220;2022-11-25T12:20:58;15.90;58.02
65707;SHT31;52423;43.512;5.220;2022-11-25T12:23:58;15.99;59.15
65707;SHT31;52423;43.512;5.220;2022-11-25T12:26:35;16.10;58.45
65707;SHT31;52423;43.512;5.220;2022-11-25T12:29:08;16.03;58.17
65707;SHT31;52423;43.512;5.220;2022-11-25T12:31:44;15.89;57.91
65707;SHT31;52423;43.512;5.220;2022-11-25T12:34:20;16.06;57.57
65707;SHT31;52423;43.512;5.220;2022-11-25T12:36:52;16.03;57.68
65707;SHT31;52423;43.512;5.220;2022-11-25T12:39:28;16.24;57.13
65707;SHT31;52423;43.512;5.220;2022-11-25T12:41:59;16.33;55.54
65707;SHT31;52423;43.512;5.220;2022-11-25T12:44:48;16.50;54.99
65707;SHT31;52423;43.512;5.220;2022-11-25T12:47:15;16.64;54.95
65707;SHT31;52423;43.512;5.220;2022-11-25T12:49:43;16.71;55.76
65707;SHT31;52423;43.512;5.220;2022-11-25T13:17:00;16.47;57.26
65707;SHT31;52423;43.512;5.220;2022-11-25T13:19:25;16.54;57.87
65707;SHT31;52423;43.512;5.220;2022-11-25T13:21:59;16.51;58.18
65707;SHT31;52423;43.512;5.220;2022-11-25T13:24:47;16.57;58.59
65707;SHT31;52423;43.512;5.220;2022-11-25T13:27:32;16.57;59.75
65707;SHT31;52423;43.512;5.220;2022-11-25T13:30:49;16.84;56.28
65707;SHT31;52423;43.512;5.220;2022-11-25T13:35:52;16.86;56.06
65707;SHT31;52423;43.512;5.220;2022-11-25T13:38:33;16.72;56.89
65707;SHT31;52423;43.512;5.220;2022-11-25T13:46:38;16.55;57.63
65707;SHT31;52423;43.512;5.220;2022-11-25T13:54:47;16.47;57.24
65707;SHT31;52423;43.512;5.220;2022-11-25T13:57:18;16.54;57.40
65707;SHT31;52423;43.512;5.220;2022-11-25T14:05:01;16.40;58.28
65707;SHT31;52423;43.512;5.220;2022-11-25T14:15:51;16.47;56.73
65707;SHT31;52423;43.512;5.220;2022-11-25T14:18:43;16.48;57.59
65707;SHT31;52423;43.512;5.220;2022-11-25T14:21:25;16.41;58.72
65707;SHT31;52423;43.512;5.220;2022-11-25T14:24:33;16.40;58.70
65707;SHT31;52423;43.512;5.220;2022-11-25T14:27:00;16.37;56.83
65707;SHT31;52423;43.512;5.220;2022-11-25T14:29:34;16.38;57.04
65707;SHT31;52423;43.512;5.220;2022-11-25T14:32:14;16.30;58.87
65707;SHT31;52423;43.512;5.220;2022-11-25T14:34:47;16.18;58.75
65707;SHT31;52423;43.512;5.220;2022-11-25T14:37:25;16.20;59.40
65707;SHT31;52423;43.512;5.220;2022-11-25T14:42:24;16.25;57.82
65707;SHT31;52423;43.512;5.220;2022-11-25T14:44:53;16.17;58.00
65707;SHT31;52423;43.512;5.220;2022-11-25T14:47:29;16.06;59.52
65707;SHT31;52423;43.512;5.220;2022-11-25T14:49:56;15.94;59.72
65707;SHT31;52423;43.512;5.220;2022-11-25T14:52:31;15.92;58.98
65707;SHT31;52423;43.512;5.220;2022-11-25T14:54:58;15.85;59.77
65707;SHT31;52423;43.512;5.220;2022-11-25T14:57:27;15.82;60.51
65707;SHT31;52423;43.512;5.220;2022-11-25T14:59:56;15.72;60.72
65707;SHT31;52423;43.512;5.220;2022-11-25T15:02:28;15.70;60.72
65707;SHT31;52423;43.512;5.220;2022-11-25T15:07:34;15.56;61.81
65707;SHT31;52423;43.512;5.220;2022-11-25T15:09:59;15.52;61.64
65707;SHT31;52423;43.512;5.220;2022-11-25T15:12:30;15.34;61.93
65707;SHT31;52423;43.512;5.220;2022-11-25T15:14:57;15.22;62.72
65707;SHT31;52423;43.512;5.220;2022-11-25T15:17:31;15.12;63.61
65707;SHT31;52423;43.512;5.220;2022-11-25T15:19:58;14.88;64.33
65707;SHT31;52423;43.512;5.220;2022-11-25T15:22:26;14.87;63.44
65707;SHT31;52423;43.512;5.220;2022-11-25T15:24:53;14.73;64.56
65707;SHT31;52423;43.512;5.220;2022-11-25T15:29:47;14.52;64.13
65707;SHT31;52423;43.512;5.220;2022-11-25T15:32:19;14.42;63.38
65707;SHT31;52423;43.512;5.220;2022-11-25T15:34:47;14.32;64.49
65707;SHT31;52423;43.512;5.220;2022-11-25T15:37:13;14.15;64.42
65707;SHT31;52423;43.512;5.220;2022-11-25T15:39:39;14.05;64.66
65707;SHT31;52423;43.512;5.220;2022-11-25T15:42:18;13.92;64.78
65707;SHT31;52423;43.512;5.220;2022-11-25T15:44:54;13.85;64.95
65707;SHT31;52423;43.512;5.220;2022-11-25T15:47:28;13.82;64.45
65707;SHT31;52423;43.512;5.220;2022-11-25T15:52:28;13.77;64.43
65707;SHT31;52423;43.512;5.220;2022-11-25T15:55:02;13.61;65.13
65707;SHT31;52423;43.512;5.220;2022-11-25T15:57:32;13.58;64.97
65707;SHT31;52423;43.512;5.220;2022-11-25T16:05:25;13.40;66.24
65707;SHT31;52423;43.512;5.220;2022-11-25T16:21:28;13.16;67.56
65707;SHT31;52423;43.512;5.220;2022-11-25T16:26:35;13.07;68.78
65707;SHT31;52423;43.512;5.220;2022-11-25T16:29:12;13.02;68.74
65707;SHT31;52423;43.512;5.220;2022-11-25T16:31:39;13.04;68.97
65707;SHT31;52423;43.512;5.220;2022-11-25T16:34:16;12.97;68.72
65707;SHT31;52423;43.512;5.220;2022-11-25T16:36:41;12.96;69.34
65707;SHT31;52423;43.512;5.220;2022-11-25T16:39:07;13.02;68.94
65707;SHT31;52423;43.512;5.220;2022-11-25T16:41:33;13.02;68.64
65707;SHT31;52423;43.512;5.220;2022-11-25T16:43:59;12.96;69.37
65707;SHT31;52423;43.512;5.220;2022-11-25T16:46:24;12.93;69.36
65707;SHT31;52423;43.512;5.220;2022-11-25T16:48:50;12.99;68.90
65707;SHT31;52423;43.512;5.220;2022-11-25T16:51:21;12.95;69.57
65707;SHT31;52423;43.512;5.220;2022-11-25T16:53:48;13.00;68.90
65707;SHT31;52423;43.512;5.220;2022-11-25T16:56:23;12.96;69.60
65707;SHT31;52423;43.512;5.220;2022-11-25T16:58:50;12.92;69.53
65707;SHT31;52423;43.512;5.220;2022-11-25T17:01:17;12.91;69.68
65707;SHT31;52423;43.512;5.220;2022-11-25T17:03:43;12.91;69.90
65707;SHT31;52423;43.512;5.220;2022-11-25T17:06:13;12.86;69.75
65707;SHT31;52423;43.512;5.220;2022-11-25T17:08:38;12.78;70.32
65707;SHT31;52423;43.512;5.220;2022-11-25T17:11:04;12.79;70.35
65707;SHT31;52423;43.512;5.220;2022-11-25T17:13:29;12.75;70.76
65707;SHT31;52423;43.512;5.220;2022-11-25T17:15:55;12.68;71.08
65707;SHT31;52423;43.512;5.220;2022-11-25T17:18:20;12.58;71.38
65707;SHT31;52423;43.512;5.220;2022-11-25T17:20:47;12.58;72.17
65707;SHT31;52423;43.512;5.220;2022-11-25T17:23:15;12.52;72.51
65707;SHT31;52423;43.512;5.220;2022-11-25T17:25:47;12.51;72.21
65707;SHT31;52423;43.512;5.220;2022-11-25T17:28:14;12.46;72.67
65707;SHT31;52423;43.512;5.220;2022-11-25T17:30:42;12.38;72.91
65707;SHT31;52423;43.512;5.220;2022-11-25T17:33:16;12.31;73.65
65707;SHT31;52423;43.512;5.220;2022-11-25T17:35:43;12.30;73.46
65707;SHT31;52423;43.512;5.220;2022-11-25T17:38:16;12.24;74.12
65707;SHT31;52423;43.512;5.220;2022-11-25T17:40:42;12.20;74.38
65707;SHT31;52423;43.512;5.220;2022-11-25T17:43:16;12.23;74.43
65707;SHT31;52423;43.512;5.220;2022-11-25T17:45:42;12.16;74.85
65707;SHT31;52423;43.512;5.220;2022-11-25T17:48:10;12.11;74.48
65707;SHT31;52423;43.512;5.220;2022-11-25T17:50:37;12.10;74.47
65707;SHT31;52423;43.512;5.220;2022-11-25T17:53:02;12.03;74.76
65707;SHT31;52423;43.512;5.220;2022-11-25T17:55:29;12.07;74.39
65707;SHT31;52423;43.512;5.220;2022-11-25T17:57:55;12.03;74.37
65707;SHT31;52423;43.512;5.220;2022-11-25T18:00:21;11.95;74.43
65707;SHT31;52423;43.512;5.220;2022-11-25T18:02:47;11.94;74.55
65707;SHT31;52423;43.512;5.220;2022-11-25T18:05:21;11.93;74.39
65707;SHT31;52423;43.512;5.220;2022-11-25T18:07:47;11.87;74.59
65707;SHT31;52423;43.512;5.220;2022-11-25T18:10:18;11.91;74.52
65707;SHT31;52423;43.512;5.220;2022-11-25T18:12:45;11.79;74.18